Time;durP1;ratioP1;P1;durP2;ratioP2;P2;SDS_P1;SDS_P2;PMS_P1;PMS_P2;Temp;Humidity;BMP_temperature;BMP_pressure;BME280_temperature;BME280_humidity;BME280_pressure;Samples;Min_cycle;Max_cycle;Signal;HPM_P1;HPM_P2
2024/01/16 00:00:08;;;;;;;4.82;2.85;;;-0.70;56.80;;;;;;5096225;28;20100;-79
2024/01/16 00:02:36;;;;;;;5.35;2.50;;;-0.70;57.40;;;;;;5097843;28;20383;-81
2024/01/16 00:05:02;;;;;;;5.70;3.13;;;-0.80;57.60;;;;;;5080339;28;20054;-81
2024/01/16 00:07:47;;;;;;;5.60;2.83;;;-0.80;57.70;;;;;;5080877;28;20127;-81
2024/01/16 00:10:13;;;;;;;5.85;2.67;;;-0.80;57.70;;;;;;5097570;28;20038;-80
2024/01/16 00:12:40;;;;;;;6.07;2.95;;;-0.80;57.40;;;;;;5115977;28;20106;-81
2024/01/16 00:15:08;;;;;;;7.90;2.65;;;-0.80;57.40;;;;;;5080667;28;20593;-81
2024/01/16 00:17:35;;;;;;;6.90;2.78;;;-0.80;57.30;;;;;;5080690;28;20483;-81
2024/01/16 00:20:05;;;;;;;5.07;2.45;;;-0.70;57.10;;;;;;5097555;28;20376;-81
2024/01/16 00:22:30;;;;;;;6.15;2.50;;;-0.70;56.80;;;;;;5097458;28;20020;-81
2024/01/16 00:24:56;;;;;;;8.90;3.35;;;-0.70;57.00;;;;;;5080594;28;20426;-81
2024/01/16 00:27:23;;;;;;;6.55;3.20;;;-0.70;57.10;;;;;;5092804;28;20036;-81
2024/01/16 00:29:49;;;;;;;5.00;2.78;;;-0.70;57.00;;;;;;5076573;28;20024;-80
2024/01/16 00:32:23;;;;;;;9.98;3.88;;;-0.70;57.00;;;;;;5094955;28;20415;-81
2024/01/16 00:34:51;;;;;;;9.10;5.32;;;-0.70;57.90;;;;;;5060084;28;20525;-80
2024/01/16 00:37:21;;;;;;;10.55;3.75;;;-0.70;57.00;;;;;;5035796;28;20048;-80
2024/01/16 00:39:47;;;;;;;6.55;3.20;;;-0.70;57.10;;;;;;5074482;28;20033;-80
2024/01/16 00:42:25;;;;;;;7.28;3.35;;;-0.70;57.10;;;;;;5073415;28;20037;-81
2024/01/16 00:44:51;;;;;;;6.40;2.95;;;-0.70;57.00;;;;;;5037345;28;20485;-80
2024/01/16 00:47:18;;;;;;;6.25;2.97;;;-0.80;56.60;;;;;;5074308;28;20032;-80
2024/01/16 00:49:48;;;;;;;5.25;2.97;;;-0.80;57.10;;;;;;5057371;28;20037;-80
2024/01/16 00:52:15;;;;;;;5.78;3.15;;;-0.80;57.50;;;;;;5039513;28;20048;-80
2024/01/16 00:54:43;;;;;;;6.53;2.72;;;-0.80;57.70;;;;;;5040144;28;20111;-81
2024/01/16 00:57:16;;;;;;;8.25;3.50;;;-0.80;57.50;;;;;;5074217;28;20031;-81
2024/01/16 00:59:44;;;;;;;5.55;2.88;;;-0.80;57.50;;;;;;5040619;28;20028;-81
2024/01/16 01:02:12;;;;;;;7.22;3.42;;;-0.80;58.00;;;;;;5039658;28;20478;-80
2024/01/16 01:04:41;;;;;;;6.03;3.33;;;-0.90;57.90;;;;;;5023075;28;20035;-80
2024/01/16 01:07:18;;;;;;;8.02;3.38;;;-0.90;58.40;;;;;;5055675;28;20120;-80
2024/01/16 01:09:45;;;;;;;9.60;3.80;;;-0.90;58.80;;;;;;5041363;28;20115;-80
2024/01/16 01:12:17;;;;;;;10.05;3.95;;;-1.00;59.00;;;;;;5055751;28;20028;-81
2024/01/16 01:14:44;;;;;;;7.30;3.95;;;-1.00;59.30;;;;;;5039192;28;20040;-80
2024/01/16 01:17:12;;;;;;;7.10;3.35;;;-1.10;59.30;;;;;;5056046;28;20223;-80
2024/01/16 01:19:38;;;;;;;9.82;3.80;;;-1.10;59.60;;;;;;5039774;28;20033;-79
2024/01/16 01:22:12;;;;;;;4.80;3.17;;;-1.10;59.60;;;;;;5039283;28;20628;-80
2024/01/16 01:24:40;;;;;;;7.32;2.72;;;-1.10;59.60;;;;;;5039732;28;20036;-80
2024/01/16 01:27:08;;;;;;;5.47;3.38;;;-1.20;59.60;;;;;;5055356;28;20039;-80
2024/01/16 01:29:37;;;;;;;4.65;2.95;;;-1.10;60.00;;;;;;5055926;28;20472;-80
2024/01/16 01:32:03;;;;;;;7.25;3.25;;;-1.20;59.70;;;;;;5023969;28;20097;-80
2024/01/16 01:34:30;;;;;;;7.82;3.50;;;-1.20;59.80;;;;;;5041031;28;20060;-80
2024/01/16 01:36:57;;;;;;;8.43;3.72;;;-1.20;60.00;;;;;;5087918;28;20032;-80
2024/01/16 01:39:23;;;;;;;7.22;3.67;;;-1.30;59.90;;;;;;5070004;28;20035;-81
2024/01/16 01:41:50;;;;;;;9.05;3.78;;;-1.30;59.90;;;;;;5078245;28;20016;-80
2024/01/16 01:44:16;;;;;;;6.30;2.83;;;-1.30;60.00;;;;;;5076610;28;20082;-81
2024/01/16 01:46:43;;;;;;;10.00;5.10;;;-1.40;60.10;;;;;;5075705;28;20476;-81
2024/01/16 01:49:12;;;;;;;15.65;6.80;;;-1.40;60.30;;;;;;5075600;28;20034;-81
2024/01/16 01:51:38;;;;;;;11.02;5.03;;;-1.60;60.50;;;;;;5059197;28;20028;-81
2024/01/16 01:54:05;;;;;;;10.40;4.78;;;-1.60;60.60;;;;;;5093245;28;20028;-81
2024/01/16 01:56:32;;;;;;;7.07;3.92;;;-1.70;60.50;;;;;;5075296;28;20016;-81
2024/01/16 01:59:01;;;;;;;8.57;4.10;;;-1.90;60.70;;;;;;5059061;28;20075;-81
2024/01/16 02:01:31;;;;;;;8.60;3.80;;;-1.90;61.10;;;;;;5093612;28;20024;-81
2024/01/16 02:03:59;;;;;;;8.30;2.92;;;-1.90;61.30;;;;;;5059334;28;20039;-80
2024/01/16 02:06:26;;;;;;;6.80;3.00;;;-1.90;61.20;;;;;;5075454;28;20020;-81
2024/01/16 02:08:52;;;;;;;7.32;2.10;;;-2.00;61.40;;;;;;5058768;28;20047;-81
2024/01/16 02:11:18;;;;;;;10.50;2.72;;;-2.00;62.00;;;;;;5075134;28;20154;-80
2024/01/16 02:13:46;;;;;;;7.05;2.47;;;-2.10;63.20;;;;;;5093105;28;20024;-81
2024/01/16 02:16:22;;;;;;;5.90;2.42;;;-2.20;63.70;;;;;;5058439;28;20078;-81
2024/01/16 02:18:49;;;;;;;4.53;2.15;;;-2.30;65.00;;;;;;5058518;28;20024;-81
2024/01/16 02:21:27;;;;;;;6.30;2.63;;;-2.40;65.50;;;;;;5074256;28;20112;-81
2024/01/16 02:23:57;;;;;;;3.70;1.90;;;-2.40;65.70;;;;;;5058626;28;20040;-81
2024/01/16 02:26:23;;;;;;;7.13;2.00;;;-2.50;65.80;;;;;;5075179;28;20028;-81
2024/01/16 02:28:52;;;;;;;7.05;2.30;;;-2.50;66.30;;;;;;5057906;28;20109;-81
2024/01/16 02:31:19;;;;;;;11.82;2.85;;;-2.60;66.30;;;;;;5058691;28;20113;-80
2024/01/16 02:33:46;;;;;;;8.30;2.38;;;-2.60;66.50;;;;;;5057708;28;20055;-80
2024/01/16 02:36:12;;;;;;;6.30;2.00;;;-2.70;67.20;;;;;;5055023;28;20036;-81
2024/01/16 02:38:39;;;;;;;3.85;1.92;;;-2.80;66.40;;;;;;5075254;28;20070;-81
2024/01/16 02:41:07;;;;;;;4.13;1.85;;;-2.80;66.50;;;;;;5074946;28;20024;-81
2024/01/16 02:43:33;;;;;;;6.13;2.10;;;-2.90;66.80;;;;;;5057980;28;20024;-81
2024/01/16 02:45:58;;;;;;;2.80;1.48;;;-3.00;67.50;;;;;;5074968;28;20077;-81
2024/01/16 02:48:24;;;;;;;4.45;1.95;;;-3.10;67.70;;;;;;5074688;28;20077;-81
2024/01/16 02:50:51;;;;;;;3.88;2.17;;;-3.00;67.70;;;;;;5074930;28;20024;-81
2024/01/16 02:53:17;;;;;;;4.50;2.20;;;-3.10;67.40;;;;;;5074602;28;20526;-79
2024/01/16 02:55:42;;;;;;;6.85;2.17;;;-3.20;67.00;;;;;;5074716;28;20024;-80
2024/01/16 02:58:08;;;;;;;4.95;2.55;;;-3.30;67.60;;;;;;5075064;28;20051;-80
2024/01/16 03:00:35;;;;;;;3.78;2.30;;;-3.40;67.80;;;;;;5074718;28;20376;-80
2024/01/16 03:03:00;;;;;;;5.75;2.60;;;-3.40;68.20;;;;;;5074475;28;20028;-80
2024/01/16 03:05:26;;;;;;;4.53;2.47;;;-3.40;68.00;;;;;;5074530;28;20027;-80
2024/01/16 03:07:51;;;;;;;5.47;2.50;;;-3.50;67.70;;;;;;5078118;28;20040;-79
2024/01/16 03:10:17;;;;;;;8.75;2.40;;;-3.60;67.60;;;;;;5078787;28;20028;-81
2024/01/16 03:12:43;;;;;;;4.65;2.33;;;-3.70;68.60;;;;;;5096577;28;20024;-80
2024/01/16 03:15:10;;;;;;;7.78;3.03;;;-3.70;69.30;;;;;;5078461;28;20051;-79
2024/01/16 03:17:40;;;;;;;5.18;2.42;;;-3.80;69.40;;;;;;5061505;28;20043;-80
2024/01/16 03:20:07;;;;;;;6.07;2.92;;;-3.80;69.60;;;;;;5078267;28;20472;-80
2024/01/16 03:22:32;;;;;;;4.38;2.58;;;-3.80;69.50;;;;;;5077649;28;20028;-79
2024/01/16 03:24:58;;;;;;;9.10;2.28;;;-3.80;69.40;;;;;;5061835;28;20036;-80
2024/01/16 03:27:24;;;;;;;6.38;2.47;;;-3.70;68.80;;;;;;5078142;28;20527;-80
2024/01/16 03:29:49;;;;;;;6.32;2.35;;;-3.80;68.40;;;;;;5077941;28;20024;-79
2024/01/16 03:32:15;;;;;;;9.13;3.13;;;-3.80;68.60;;;;;;5061582;28;20024;-79
2024/01/16 03:34:40;;;;;;;4.90;2.80;;;-3.90;68.40;;;;;;5077711;28;20352;-79
2024/01/16 03:37:06;;;;;;;6.13;3.05;;;-3.90;68.40;;;;;;5077784;28;20056;-79
2024/01/16 03:39:31;;;;;;;5.03;2.85;;;-4.00;68.20;;;;;;5077908;28;20013;-79
2024/01/16 03:41:57;;;;;;;6.90;2.80;;;-4.00;68.30;;;;;;5077806;28;20028;-79
2024/01/16 03:44:22;;;;;;;6.75;2.78;;;-4.10;68.50;;;;;;5095626;28;20025;-79
2024/01/16 03:46:48;;;;;;;9.07;2.75;;;-4.10;68.50;;;;;;5077662;28;20031;-80
2024/01/16 03:49:14;;;;;;;6.15;2.80;;;-4.10;68.40;;;;;;5077905;28;20046;-79
2024/01/16 03:51:42;;;;;;;7.60;2.92;;;-4.20;68.60;;;;;;5077874;28;20027;-79
2024/01/16 03:54:08;;;;;;;5.47;2.42;;;-4.10;68.60;;;;;;5077949;28;20028;-78
2024/01/16 03:56:33;;;;;;;5.00;2.90;;;-4.10;68.70;;;;;;5077716;28;20030;-78
2024/01/16 03:58:59;;;;;;;9.38;3.13;;;-4.10;68.40;;;;;;5077401;28;20024;-79
2024/01/16 04:01:36;;;;;;;5.18;2.80;;;-4.10;68.00;;;;;;5077524;28;20024;-80
2024/01/16 04:04:02;;;;;;;8.68;3.97;;;-4.10;67.80;;;;;;5077633;28;20046;-80
2024/01/16 04:06:29;;;;;;;6.70;3.20;;;-4.20;67.90;;;;;;5077647;28;20085;-81
2024/01/16 04:08:55;;;;;;;10.57;3.40;;;-4.30;68.00;;;;;;5077175;28;20036;-79
2024/01/16 04:11:21;;;;;;;7.13;2.90;;;-4.40;68.60;;;;;;5076901;28;20357;-81
2024/01/16 04:13:46;;;;;;;10.02;3.47;;;-4.50;69.10;;;;;;5060159;28;20514;-79
2024/01/16 04:16:12;;;;;;;6.47;3.35;;;-4.60;69.30;;;;;;5077691;28;20425;-78
2024/01/16 04:18:40;;;;;;;6.20;3.33;;;-4.60;69.00;;;;;;5077286;28;20078;-76
2024/01/16 04:21:10;;;;;;;9.05;3.25;;;-4.70;69.20;;;;;;5061352;28;20040;-79
2024/01/16 04:23:36;;;;;;;7.00;3.13;;;-4.70;69.50;;;;;;5077745;28;20111;-78
2024/01/16 04:26:02;;;;;;;4.97;2.63;;;-4.70;69.70;;;;;;5078065;28;20115;-78
2024/01/16 04:28:28;;;;;;;12.07;4.68;;;-4.70;69.70;;;;;;5077517;28;20122;-80
2024/01/16 04:30:57;;;;;;;5.47;2.70;;;-4.80;69.60;;;;;;5096879;28;20032;-81
2024/01/16 04:33:24;;;;;;;7.63;2.80;;;-4.70;69.90;;;;;;5079282;28;20024;-79
2024/01/16 04:35:50;;;;;;;6.88;3.40;;;-4.70;69.70;;;;;;5080173;28;20028;-79
2024/01/16 04:38:17;;;;;;;7.15;3.72;;;-4.80;69.60;;;;;;5060714;28;20109;-80
2024/01/16 04:40:42;;;;;;;6.97;3.40;;;-4.90;69.60;;;;;;5077005;28;20024;-80
2024/01/16 04:43:08;;;;;;;12.38;3.58;;;-4.90;69.80;;;;;;5076571;28;20032;-80
2024/01/16 04:45:34;;;;;;;6.75;3.33;;;-4.90;70.00;;;;;;5076871;28;20030;-79
2024/01/16 04:47:59;;;;;;;6.03;3.15;;;-4.90;70.10;;;;;;5059814;28;20070;-79
2024/01/16 04:50:31;;;;;;;9.05;3.28;;;-4.80;69.70;;;;;;5076908;28;20052;-79
2024/01/16 04:52:57;;;;;;;7.63;3.40;;;-4.80;69.40;;;;;;5076639;28;20032;-79
2024/01/16 04:55:22;;;;;;;9.13;4.47;;;-4.70;69.40;;;;;;5076391;28;20046;-80
2024/01/16 04:57:48;;;;;;;15.35;5.25;;;-4.70;69.20;;;;;;5076235;28;20020;-79
2024/01/16 05:00:14;;;;;;;12.73;4.68;;;-4.70;69.00;;;;;;5076251;28;20020;-79
2024/01/16 05:02:39;;;;;;;9.70;4.25;;;-4.70;68.90;;;;;;5076395;28;20020;-79
2024/01/16 05:05:06;;;;;;;9.40;4.00;;;-4.80;69.00;;;;;;5076033;28;20186;-79
2024/01/16 05:07:32;;;;;;;10.52;4.13;;;-4.80;69.20;;;;;;5076073;28;20419;-79
2024/01/16 05:09:58;;;;;;;13.00;4.68;;;-4.80;69.30;;;;;;5094726;28;20034;-80
2024/01/16 05:12:23;;;;;;;11.65;3.85;;;-4.80;69.20;;;;;;5076056;28;20063;-77
2024/01/16 05:14:50;;;;;;;10.93;4.15;;;-4.70;69.10;;;;;;5059572;28;20047;-79
2024/01/16 05:17:16;;;;;;;15.05;5.35;;;-4.80;68.80;;;;;;5076410;28;20028;-80
2024/01/16 05:19:42;;;;;;;8.80;3.72;;;-4.90;68.80;;;;;;5059165;28;20031;-79
2024/01/16 05:22:08;;;;;;;11.18;4.00;;;-5.10;69.20;;;;;;5059347;28;20035;-80
2024/01/16 05:24:33;;;;;;;11.25;5.00;;;-5.10;69.60;;;;;;5075926;28;20020;-80
2024/01/16 05:26:59;;;;;;;10.48;4.60;;;-5.00;69.40;;;;;;5075662;28;20102;-81
2024/01/16 05:29:24;;;;;;;11.85;3.65;;;-5.00;69.30;;;;;;5075233;28;20031;-79
2024/01/16 05:31:50;;;;;;;8.57;3.88;;;-5.00;69.10;;;;;;5075846;28;20024;-81
2024/01/16 05:34:16;;;;;;;10.35;4.32;;;-5.10;69.30;;;;;;5075967;28;20115;-80
2024/01/16 05:36:44;;;;;;;8.40;4.65;;;-5.10;69.50;;;;;;5042829;28;20028;-80
2024/01/16 05:39:10;;;;;;;12.07;3.85;;;-5.10;69.50;;;;;;5075848;28;20468;-78
2024/01/16 05:41:36;;;;;;;16.17;4.57;;;-5.10;70.20;;;;;;5075829;28;20024;-79
2024/01/16 05:44:04;;;;;;;10.18;4.35;;;-5.10;69.10;;;;;;5075971;28;20024;-79
2024/01/16 05:46:31;;;;;;;12.00;4.53;;;-5.20;69.00;;;;;;5093713;28;20051;-79
2024/01/16 05:48:58;;;;;;;14.60;5.13;;;-5.20;69.50;;;;;;5059253;28;20039;-80
2024/01/16 05:51:29;;;;;;;16.20;4.72;;;-5.30;69.50;;;;;;5075599;28;20446;-79
2024/01/16 05:53:55;;;;;;;12.32;4.47;;;-5.30;69.50;;;;;;5075424;28;20047;-80
2024/01/16 05:56:21;;;;;;;11.02;4.50;;;-5.40;69.90;;;;;;5093973;28;20020;-80
2024/01/16 05:58:46;;;;;;;10.18;4.10;;;-5.40;70.20;;;;;;5075068;28;20119;-79
2024/01/16 06:01:13;;;;;;;11.65;4.15;;;-5.50;70.40;;;;;;5058997;28;20370;-79
2024/01/16 06:03:39;;;;;;;9.27;3.97;;;-5.50;70.70;;;;;;5075422;28;20078;-79
2024/01/16 06:06:05;;;;;;;9.40;4.60;;;-5.60;70.80;;;;;;5093414;28;20394;-81
2024/01/16 06:08:31;;;;;;;8.85;3.60;;;-5.60;71.10;;;;;;5074788;28;20442;-78
2024/01/16 06:10:57;;;;;;;9.50;4.50;;;-5.70;71.50;;;;;;5078951;28;20028;-79
2024/01/16 06:13:25;;;;;;;9.65;4.10;;;-5.80;71.90;;;;;;5075635;28;20024;-80
2024/01/16 06:15:51;;;;;;;13.18;4.55;;;-5.80;71.80;;;;;;5075046;28;20035;-79
2024/01/16 06:18:16;;;;;;;11.55;4.70;;;-5.80;72.00;;;;;;5075226;28;20044;-79
2024/01/16 06:20:42;;;;;;;14.07;4.57;;;-5.80;72.30;;;;;;5093238;28;20051;-80
2024/01/16 06:23:13;;;;;;;12.13;4.70;;;-5.80;72.20;;;;;;5075385;28;20485;-78
2024/01/16 06:25:39;;;;;;;12.90;4.88;;;-5.80;72.10;;;;;;5075619;28;20019;-79
2024/01/16 06:28:07;;;;;;;13.82;5.53;;;-5.70;71.90;;;;;;5075184;28;20044;-80
2024/01/16 06:30:32;;;;;;;15.60;5.13;;;-5.70;71.70;;;;;;5058489;28;20033;-79
2024/01/16 06:32:58;;;;;;;13.40;5.72;;;-5.60;71.20;;;;;;5057953;28;20442;-77
2024/01/16 06:35:24;;;;;;;15.13;5.25;;;-5.60;70.80;;;;;;5075189;28;20020;-79
2024/01/16 06:37:50;;;;;;;15.25;6.20;;;-5.60;70.70;;;;;;5093195;28;20122;-80
2024/01/16 06:40:17;;;;;;;18.00;5.95;;;-5.60;70.70;;;;;;5060111;28;20098;-77
2024/01/16 06:42:42;;;;;;;15.65;5.93;;;-5.60;70.70;;;;;;5062266;28;20028;-79
2024/01/16 06:45:08;;;;;;;16.63;6.28;;;-5.60;70.70;;;;;;5097153;28;20027;-79
2024/01/16 06:47:34;;;;;;;15.57;5.20;;;-5.70;71.00;;;;;;5079383;28;20024;-79
2024/01/16 06:49:59;;;;;;;17.88;6.13;;;-5.70;71.10;;;;;;5079065;28;20023;-79
2024/01/16 06:52:25;;;;;;;12.80;6.10;;;-5.70;71.20;;;;;;5079090;28;20032;-79
2024/01/16 06:54:51;;;;;;;11.18;4.88;;;-5.70;71.20;;;;;;5079158;28;20028;-78
2024/01/16 06:57:16;;;;;;;17.52;6.45;;;-5.80;71.10;;;;;;5062576;28;20024;-81
2024/01/16 06:59:42;;;;;;;17.25;6.32;;;-5.80;72.10;;;;;;5079215;28;20028;-80
2024/01/16 07:02:08;;;;;;;14.50;6.20;;;-5.80;71.60;;;;;;5079575;28;20032;-81
2024/01/16 07:04:34;;;;;;;14.45;5.82;;;-5.80;71.60;;;;;;5078753;28;20027;-80
2024/01/16 07:06:59;;;;;;;13.40;6.03;;;-5.90;71.70;;;;;;5079020;28;20024;-81
2024/01/16 07:09:27;;;;;;;15.57;5.78;;;-5.80;72.00;;;;;;5078686;28;20165;-80
2024/01/16 07:11:55;;;;;;;13.02;6.53;;;-5.70;71.70;;;;;;5078766;28;20020;-79
2024/01/16 07:14:24;;;;;;;16.95;6.93;;;-5.70;71.40;;;;;;5097165;28;20099;-79
2024/01/16 07:16:54;;;;;;;18.27;6.72;;;-5.60;71.60;;;;;;5061897;28;20043;-82
2024/01/16 07:19:21;;;;;;;15.20;6.63;;;-5.50;71.60;;;;;;5077669;28;20027;-79
2024/01/16 07:21:48;;;;;;;16.25;6.45;;;-5.50;71.10;;;;;;5079956;28;20029;-81
2024/01/16 07:24:14;;;;;;;13.50;5.63;;;-5.00;81.60;;;;;;5079503;28;20506;-78
2024/01/16 07:26:41;;;;;;;16.08;7.15;;;-4.50;79.70;;;;;;5080531;28;20020;-77
2024/01/16 07:29:06;;;;;;;17.42;6.68;;;-4.00;78.50;;;;;;5082232;28;20040;-79
2024/01/16 07:31:33;;;;;;;19.20;7.03;;;-3.60;75.50;;;;;;5083157;28;20024;-78
2024/01/16 07:33:59;;;;;;;22.40;7.85;;;-3.30;70.20;;;;;;5081750;28;20055;-79
2024/01/16 07:36:24;;;;;;;20.17;6.07;;;-3.20;67.30;;;;;;5078362;28;20064;-76
2024/01/16 07:38:50;;;;;;;14.23;5.60;;;-3.00;64.50;;;;;;5096167;28;20437;-78
2024/01/16 07:41:15;;;;;;;17.00;6.80;;;-3.00;64.10;;;;;;5061674;28;20581;-79
2024/01/16 07:43:41;;;;;;;20.42;6.47;;;-3.00;61.00;;;;;;5096292;28;20027;-79
2024/01/16 07:46:07;;;;;;;14.30;6.03;;;-3.10;61.70;;;;;;5078421;28;20016;-80
2024/01/16 07:48:32;;;;;;;15.25;6.28;;;-3.30;60.40;;;;;;5078294;28;20092;-80
2024/01/16 07:50:58;;;;;;;13.20;5.97;;;-3.70;61.10;;;;;;5078355;28;20096;-80
2024/01/16 07:53:27;;;;;;;13.88;5.88;;;-3.90;62.20;;;;;;5077126;28;20486;-80
2024/01/16 07:55:54;;;;;;;13.40;6.07;;;-4.10;63.20;;;;;;5078129;28;20021;-79
2024/01/16 07:58:23;;;;;;;12.18;5.90;;;-4.30;64.50;;;;;;5096485;28;20380;-79
2024/01/16 08:00:49;;;;;;;14.07;6.07;;;-4.50;65.60;;;;;;5091602;28;20111;-80
2024/01/16 08:03:19;;;;;;;13.27;6.72;;;-4.50;66.10;;;;;;5095890;28;20449;-79
2024/01/16 08:05:46;;;;;;;14.68;5.57;;;-4.40;67.10;;;;;;5095984;28;20024;-80
2024/01/16 08:08:12;;;;;;;12.93;6.57;;;-4.30;67.00;;;;;;5077388;28;20071;-79
2024/01/16 08:10:42;;;;;;;11.32;5.93;;;-4.30;65.10;;;;;;5077689;28;20476;-80
2024/01/16 08:13:09;;;;;;;15.10;6.20;;;-4.30;65.10;;;;;;5077506;28;20027;-79
2024/01/16 08:15:36;;;;;;;11.45;5.47;;;-4.30;64.90;;;;;;5077708;28;20457;-79
2024/01/16 08:18:02;;;;;;;17.67;6.07;;;-4.20;64.70;;;;;;5077581;28;20447;-77
2024/01/16 08:20:28;;;;;;;17.23;7.30;;;-4.20;64.50;;;;;;5076999;28;20042;-78
2024/01/16 08:22:56;;;;;;;17.92;6.85;;;-4.10;64.50;;;;;;5076799;28;20127;-78
2024/01/16 08:25:22;;;;;;;19.98;7.35;;;-4.00;64.20;;;;;;5077471;28;20066;-78
2024/01/16 08:27:48;;;;;;;18.58;7.88;;;-3.90;63.70;;;;;;5077532;28;20067;-79
2024/01/16 08:30:14;;;;;;;20.70;7.88;;;-3.80;63.60;;;;;;5060938;28;20077;-80
2024/01/16 08:32:39;;;;;;;23.05;10.50;;;-3.70;63.90;;;;;;5077539;28;20024;-80
2024/01/16 08:35:08;;;;;;;39.95;17.98;;;-3.70;63.30;;;;;;5077355;28;20027;-79
2024/01/16 08:37:34;;;;;;;23.42;9.45;;;-3.60;63.00;;;;;;5060896;28;20040;-78
2024/01/16 08:40:00;;;;;;;20.27;8.98;;;-3.60;62.70;;;;;;5077532;28;20484;-79
2024/01/16 08:42:26;;;;;;;17.88;7.70;;;-3.70;62.80;;;;;;5077107;28;20105;-79
2024/01/16 08:44:52;;;;;;;15.82;7.10;;;-3.70;63.20;;;;;;5064555;28;20036;-79
2024/01/16 08:47:17;;;;;;;16.27;6.88;;;-3.50;64.00;;;;;;5081021;28;20032;-80
2024/01/16 08:49:45;;;;;;;22.50;6.47;;;-3.60;63.00;;;;;;5076374;28;20036;-77
2024/01/16 08:52:10;;;;;;;13.98;5.88;;;-3.60;63.10;;;;;;5077726;28;20039;-78
2024/01/16 08:54:36;;;;;;;18.88;7.97;;;-3.50;64.30;;;;;;5095284;28;20372;-79
2024/01/16 08:57:01;;;;;;;17.52;8.00;;;-3.40;63.60;;;;;;5077181;28;20016;-79
2024/01/16 08:59:28;;;;;;;17.73;7.72;;;-3.30;63.40;;;;;;5077516;28;20024;-79
2024/01/16 09:01:55;;;;;;;14.05;6.90;;;-3.00;63.30;;;;;;5076955;28;20549;-79
2024/01/16 09:04:21;;;;;;;16.08;8.20;;;-2.60;62.50;;;;;;5075936;28;20028;-80
2024/01/16 09:06:46;;;;;;;16.02;7.25;;;-2.40;60.10;;;;;;5077206;28;20017;-80
2024/01/16 09:09:15;;;;;;;16.15;7.22;;;-2.30;59.70;;;;;;5076984;28;20039;-80
2024/01/16 09:11:41;;;;;;;13.15;7.03;;;-2.10;59.20;;;;;;5076754;28;20093;-78
2024/01/16 09:14:07;;;;;;;14.43;7.45;;;-1.90;58.40;;;;;;5059408;28;20472;-79
2024/01/16 09:16:32;;;;;;;17.98;9.13;;;-1.70;58.20;;;;;;5076663;28;20058;-80
2024/01/16 09:18:58;;;;;;;15.27;7.40;;;-1.60;57.40;;;;;;5076202;28;20076;-79
2024/01/16 09:21:25;;;;;;;16.77;7.53;;;-1.50;57.40;;;;;;5076848;28;20024;-80
2024/01/16 09:23:52;;;;;;;13.57;6.85;;;-1.50;57.00;;;;;;5059681;28;20104;-80
2024/01/16 09:26:17;;;;;;;19.00;7.05;;;-1.50;56.90;;;;;;5076203;28;20024;-80
2024/01/16 09:28:44;;;;;;;14.57;7.38;;;-1.50;57.20;;;;;;5059544;28;20563;-78
2024/01/16 09:31:11;;;;;;;12.70;6.82;;;-1.40;57.00;;;;;;5076589;28;20472;-78
2024/01/16 09:33:36;;;;;;;15.55;6.78;;;-1.20;56.60;;;;;;5076678;28;20477;-78
2024/01/16 09:36:02;;;;;;;13.45;7.15;;;-1.20;56.20;;;;;;5076371;28;20061;-78
2024/01/16 09:38:30;;;;;;;13.70;6.50;;;-1.00;55.90;;;;;;5059652;28;20090;-79
2024/01/16 09:40:58;;;;;;;16.67;6.90;;;-0.80;55.80;;;;;;5076035;28;20103;-78
2024/01/16 09:43:26;;;;;;;15.15;7.75;;;-0.50;55.80;;;;;;5085636;28;20503;-79
2024/01/16 09:45:54;;;;;;;14.35;7.28;;;-0.20;55.10;;;;;;5096721;28;20034;-78
2024/01/16 09:48:21;;;;;;;12.30;6.47;;;0.20;54.70;;;;;;5095957;28;20036;-79
2024/01/16 09:50:47;;;;;;;12.98;6.22;;;0.70;53.70;;;;;;5043281;23;20494;-79
2024/01/16 09:53:12;;;;;;;14.60;6.68;;;1.40;51.80;;;;;;5035759;28;20025;-79
2024/01/16 09:55:38;;;;;;;15.35;7.13;;;1.70;48.80;;;;;;5053798;28;20049;-78
2024/01/16 09:58:09;;;;;;;13.82;7.03;;;2.00;47.60;;;;;;5053900;28;20029;-78
2024/01/16 10:00:35;;;;;;;14.85;6.90;;;2.20;47.00;;;;;;5053943;28;20048;-78
2024/01/16 10:03:02;;;;;;;13.00;8.13;;;2.40;46.50;;;;;;5036047;28;20478;-79
2024/01/16 10:05:30;;;;;;;13.52;7.68;;;2.70;46.00;;;;;;5056232;28;20048;-79
2024/01/16 10:07:56;;;;;;;16.42;8.52;;;2.70;45.70;;;;;;5055769;28;20025;-80
2024/01/16 10:10:22;;;;;;;16.60;8.13;;;3.00;45.00;;;;;;5054322;28;20446;-80
2024/01/16 10:12:50;;;;;;;14.85;7.38;;;3.30;43.90;;;;;;5054169;28;20017;-81
2024/01/16 10:15:16;;;;;;;12.82;7.07;;;3.60;43.00;;;;;;5036028;28;20029;-81
2024/01/16 10:17:42;;;;;;;12.23;6.20;;;3.80;42.90;;;;;;5053792;28;20025;-80
2024/01/16 10:20:13;;;;;;;11.05;6.68;;;4.00;42.40;;;;;;5035731;28;20493;-80
2024/01/16 10:22:40;;;;;;;14.15;6.85;;;4.30;41.50;;;;;;5035491;28;20049;-80
2024/01/16 10:25:05;;;;;;;11.38;6.13;;;4.70;41.00;;;;;;5035577;28;20115;-81
2024/01/16 10:27:32;;;;;;;11.77;6.70;;;5.10;40.40;;;;;;5035898;28;20120;-81
2024/01/16 10:29:58;;;;;;;17.13;7.72;;;5.20;37.90;;;;;;5063749;28;20069;-80
2024/01/16 10:32:29;;;;;;;15.45;8.23;;;4.90;39.00;;;;;;5048648;28;20021;-82
2024/01/16 10:35:08;;;;;;;13.40;7.30;;;4.90;39.20;;;;;;5047502;28;20044;-82
2024/01/16 10:37:47;;;;;;;11.60;6.85;;;5.30;38.70;;;;;;5037407;28;20104;-82
2024/01/16 10:40:18;;;;;;;11.73;6.57;;;5.50;37.20;;;;;;5054998;28;20025;-81
2024/01/16 10:42:56;;;;;;;14.00;8.40;;;5.70;37.40;;;;;;5036063;28;20025;-81
2024/01/16 10:45:22;;;;;;;13.50;7.78;;;6.00;37.10;;;;;;5053647;28;20021;-82
2024/01/16 10:48:00;;;;;;;14.30;8.10;;;6.20;35.90;;;;;;5053425;28;20108;-81
2024/01/16 10:50:25;;;;;;;11.38;6.90;;;6.10;36.10;;;;;;5035063;28;20056;-81
2024/01/16 10:52:53;;;;;;;12.18;7.38;;;5.60;36.80;;;;;;5053202;28;20021;-81
2024/01/16 10:55:22;;;;;;;11.73;7.65;;;5.90;36.70;;;;;;5035382;28;20054;-80
2024/01/16 10:57:49;;;;;;;11.93;6.60;;;6.40;36.10;;;;;;5052932;28;20029;-80
2024/01/16 11:00:19;;;;;;;9.95;6.22;;;6.70;34.60;;;;;;5034673;28;20049;-80
2024/01/16 11:02:51;;;;;;;7.40;5.10;;;6.90;34.20;;;;;;5053045;28;20036;-79
2024/01/16 11:05:17;;;;;;;9.00;5.22;;;7.20;34.20;;;;;;5034898;28;20087;-80
2024/01/16 11:07:44;;;;;;;12.82;6.05;;;7.50;33.70;;;;;;5052829;28;20037;-81
2024/01/16 11:10:10;;;;;;;10.00;5.32;;;7.80;32.70;;;;;;5052777;28;20060;-81
2024/01/16 11:12:39;;;;;;;10.70;5.07;;;8.10;31.60;;;;;;5034865;28;20425;-80
2024/01/16 11:15:07;;;;;;;6.70;5.00;;;8.50;31.40;;;;;;5052756;28;20020;-80
2024/01/16 11:17:35;;;;;;;7.40;5.10;;;8.90;30.90;;;;;;5052750;28;20421;-81
2024/01/16 11:20:05;;;;;;;8.82;4.40;;;9.20;29.40;;;;;;5037245;28;20025;-77
2024/01/16 11:22:32;;;;;;;8.20;4.70;;;9.30;28.10;;;;;;5035365;28;20018;-78
2024/01/16 11:25:14;;;;;;;6.95;5.00;;;9.70;27.80;;;;;;5052508;28;20031;-79
2024/01/16 11:27:42;;;;;;;9.20;4.88;;;10.00;27.40;;;;;;5036281;28;20041;-80
2024/01/16 11:30:10;;;;;;;6.30;4.72;;;10.30;27.40;;;;;;5056256;28;20112;-81
2024/01/16 11:32:41;;;;;;;5.78;4.25;;;10.50;26.50;;;;;;5056023;28;20032;-79
2024/01/16 11:35:07;;;;;;;6.70;4.93;;;10.80;25.60;;;;;;5040496;28;20073;-78
2024/01/16 11:37:36;;;;;;;7.38;4.55;;;11.00;24.30;;;;;;5056438;28;20017;-78
2024/01/16 11:40:20;;;;;;;6.75;4.43;;;11.30;24.60;;;;;;5056053;28;20504;-79
2024/01/16 11:42:56;;;;;;;7.10;4.25;;;11.80;24.00;;;;;;5055970;28;20017;-79
2024/01/16 11:45:27;;;;;;;6.93;4.57;;;12.20;22.70;;;;;;5055828;28;20436;-78
2024/01/16 11:48:15;;;;;;;6.15;4.40;;;12.60;21.00;;;;;;5037945;28;20115;-80
2024/01/16 11:50:41;;;;;;;8.35;4.30;;;12.80;19.90;;;;;;5054774;28;20068;-79
2024/01/16 11:53:06;;;;;;;7.22;4.07;;;12.90;19.20;;;;;;5055201;28;20477;-79
2024/01/16 11:58:32;;;;;;;7.22;4.10;;;13.10;18.80;;;;;;5338800;23;20070;-80
2024/01/16 12:00:58;;;;;;;6.22;3.67;;;13.60;18.30;;;;;;5097293;28;20031;-81
2024/01/16 12:03:23;;;;;;;5.20;3.70;;;14.10;17.30;;;;;;5097701;28;20038;-80
2024/01/16 12:05:56;;;;;;;4.93;3.42;;;14.60;16.90;;;;;;5116948;28;20325;-80
2024/01/16 12:08:22;;;;;;;5.22;3.60;;;15.50;16.40;;;;;;5115690;28;20148;-80
2024/01/16 12:10:48;;;;;;;6.22;3.80;;;16.20;15.20;;;;;;5097607;28;20116;-80
2024/01/16 12:13:15;;;;;;;5.40;3.70;;;16.90;14.20;;;;;;5097764;28;20030;-80
2024/01/16 12:15:43;;;;;;;5.10;3.63;;;17.70;13.70;;;;;;5080130;28;20067;-79
2024/01/16 12:18:10;;;;;;;5.38;3.88;;;18.40;13.00;;;;;;5080481;28;20547;-80
2024/01/16 12:20:38;;;;;;;6.72;4.30;;;19.10;12.70;;;;;;5097325;28;20027;-80
2024/01/16 12:23:07;;;;;;;7.68;4.13;;;19.90;11.30;;;;;;5115649;28;20023;-80
2024/01/16 12:25:35;;;;;;;8.35;4.53;;;20.40;10.40;;;;;;5097276;28;20024;-80
2024/01/16 12:28:03;;;;;;;8.20;4.78;;;20.90;9.90;;;;;;5115561;28;20031;-79
2024/01/16 12:30:37;;;;;;;4.15;3.53;;;21.40;9.40;;;;;;5096933;28;20472;-79
2024/01/16 12:33:06;;;;;;;7.30;4.60;;;21.50;9.50;;;;;;5097364;28;20282;-81
2024/01/16 12:35:42;;;;;;;7.40;5.32;;;21.60;9.10;;;;;;5115572;28;20112;-78
2024/01/16 12:38:10;;;;;;;6.53;4.38;;;22.20;8.60;;;;;;5096548;28;20023;-79
2024/01/16 12:40:45;;;;;;;5.75;4.65;;;22.70;8.40;;;;;;5095981;28;20067;-81
2024/01/16 12:43:10;;;;;;;6.30;3.85;;;22.80;8.30;;;;;;5096325;28;20531;-81
2024/01/16 12:45:37;;;;;;;6.10;3.20;;;23.00;7.40;;;;;;5094614;28;20070;-81